Time;durP1;ratioP1;P1;durP2;ratioP2;P2;SDS_P1;SDS_P2;PMS_P1;PMS_P2;Temp;Humidity;BMP_temperature;BMP_pressure;BME280_temperature;BME280_humidity;BME280_pressure;Samples;Min_cycle;Max_cycle;Signal;HPM_P1;HPM_P2
2021/04/17 00:02:14;;;;;;;9.87;6.53;;;;;;;;;;3556603;40;20401;-76
2021/04/17 00:04:41;;;;;;;11.90;6.53;;;;;;;;;;3576173;39;20411;-76
2021/04/17 00:07:08;;;;;;;10.47;6.93;;;;;;;;;;3568261;40;20417;-76
2021/04/17 00:09:35;;;;;;;10.40;6.60;;;;;;;;;;3566533;40;20443;-76
2021/04/17 00:12:03;;;;;;;9.20;6.43;;;;;;;;;;3573682;40;20404;-76
2021/04/17 00:14:31;;;;;;;8.13;5.83;;;;;;;;;;3566346;40;20421;-76
2021/04/17 00:16:57;;;;;;;7.00;5.90;;;;;;;;;;3576447;40;20922;-76
2021/04/17 00:19:23;;;;;;;7.10;5.90;;;;;;;;;;3559655;40;20474;-76
2021/04/17 00:21:50;;;;;;;7.57;5.97;;;;;;;;;;3569833;40;20748;-76
2021/04/17 00:24:16;;;;;;;7.97;6.53;;;;;;;;;;3573987;40;20379;-74
2021/04/17 00:26:42;;;;;;;7.40;6.70;;;;;;;;;;3569441;40;20409;-74
2021/04/17 00:29:09;;;;;;;6.20;5.57;;;;;;;;;;3578714;40;20385;-74
2021/04/17 00:31:36;;;;;;;5.97;5.43;;;;;;;;;;3569647;40;20465;-74
2021/04/17 00:34:03;;;;;;;7.07;5.50;;;;;;;;;;3570063;40;20610;-74
2021/04/17 00:36:29;;;;;;;7.03;5.70;;;;;;;;;;3566918;40;20427;-74
2021/04/17 00:38:55;;;;;;;8.10;6.10;;;;;;;;;;3570606;40;20467;-74
2021/04/17 00:41:21;;;;;;;7.67;6.07;;;;;;;;;;3569771;40;20396;-75
2021/04/17 00:43:47;;;;;;;7.30;5.40;;;;;;;;;;3579351;40;20420;-74
2021/04/17 00:46:14;;;;;;;14.67;7.97;;;;;;;;;;3578062;40;20713;-74
2021/04/17 00:48:43;;;;;;;8.73;7.37;;;;;;;;;;3569952;40;20813;-74
2021/04/17 00:51:10;;;;;;;8.33;5.57;;;;;;;;;;3579558;40;20682;-75
2021/04/17 00:53:37;;;;;;;14.23;8.23;;;;;;;;;;3570633;40;20386;-75
2021/04/17 00:56:05;;;;;;;20.63;13.30;;;;;;;;;;3573295;40;20428;-75
2021/04/17 00:58:31;;;;;;;11.10;6.17;;;;;;;;;;3574970;40;20501;-75
2021/04/17 01:00:57;;;;;;;6.37;5.77;;;;;;;;;;3568717;40;20375;-75
2021/04/17 01:03:38;;;;;;;11.50;5.87;;;;;;;;;;3617434;22;20420;-75
2021/04/17 01:06:08;;;;;;;7.57;6.17;;;;;;;;;;3554804;40;20474;-76
2021/04/17 01:08:36;;;;;;;7.20;5.40;;;;;;;;;;3565274;40;20834;-76
2021/04/17 01:11:06;;;;;;;8.33;6.40;;;;;;;;;;3567352;40;20720;-76
2021/04/17 01:13:33;;;;;;;10.50;5.83;;;;;;;;;;3567930;40;20555;-76
2021/04/17 01:16:00;;;;;;;9.80;5.60;;;;;;;;;;3567799;40;20472;-76
2021/04/17 01:18:27;;;;;;;5.57;5.07;;;;;;;;;;3565734;40;20413;-76
2021/04/17 01:20:55;;;;;;;6.43;5.57;;;;;;;;;;3566149;40;20391;-75
2021/04/17 01:23:28;;;;;;;9.20;5.27;;;;;;;;;;3557624;40;20422;-76
2021/04/17 01:25:56;;;;;;;6.97;5.00;;;;;;;;;;3573873;40;20383;-75
2021/04/17 01:28:23;;;;;;;5.70;5.07;;;;;;;;;;3574993;40;20417;-76
2021/04/17 01:30:50;;;;;;;6.43;5.50;;;;;;;;;;3566095;40;20363;-76
2021/04/17 01:33:18;;;;;;;8.73;5.33;;;;;;;;;;3556432;40;20442;-76
2021/04/17 01:35:45;;;;;;;10.23;5.17;;;;;;;;;;3570180;40;20413;-75
2021/04/17 01:38:18;;;;;;;6.43;4.83;;;;;;;;;;3563286;40;20446;-75
2021/04/17 01:40:46;;;;;;;14.53;6.70;;;;;;;;;;3573393;40;20405;-75
2021/04/17 01:43:14;;;;;;;7.33;5.20;;;;;;;;;;3566396;40;20445;-76
2021/04/17 01:45:41;;;;;;;8.80;5.90;;;;;;;;;;3574550;40;20417;-76
2021/04/17 01:48:08;;;;;;;6.13;5.53;;;;;;;;;;3566579;40;20396;-76
2021/04/17 01:50:35;;;;;;;6.77;5.83;;;;;;;;;;3572509;40;20463;-76
2021/04/17 01:53:02;;;;;;;6.60;5.40;;;;;;;;;;3573298;40;20396;-76
2021/04/17 01:55:30;;;;;;;7.33;4.93;;;;;;;;;;3561085;40;20384;-75
2021/04/17 01:57:57;;;;;;;6.87;6.00;;;;;;;;;;3568078;40;20678;-76
2021/04/17 02:00:23;;;;;;;7.87;5.83;;;;;;;;;;3573772;40;20432;-75
2021/04/17 02:02:51;;;;;;;5.77;5.27;;;;;;;;;;3568785;39;21189;-76
2021/04/17 02:05:17;;;;;;;12.23;5.80;;;;;;;;;;3574914;39;20382;-76
2021/04/17 02:07:44;;;;;;;7.60;5.37;;;;;;;;;;3585149;39;21700;-75
2021/04/17 02:10:10;;;;;;;8.67;5.67;;;;;;;;;;3567941;39;20384;-76
2021/04/17 02:12:36;;;;;;;9.67;6.53;;;;;;;;;;3584861;39;20425;-75
2021/04/17 02:15:04;;;;;;;7.67;5.30;;;;;;;;;;3585098;39;20699;-75
2021/04/17 02:17:35;;;;;;;6.93;5.57;;;;;;;;;;3587082;39;20398;-75
2021/04/17 02:20:04;;;;;;;7.13;5.60;;;;;;;;;;3569369;39;20390;-75
2021/04/17 02:22:31;;;;;;;7.13;6.43;;;;;;;;;;3587343;39;20471;-75
2021/04/17 02:24:58;;;;;;;7.53;5.90;;;;;;;;;;3586899;39;20498;-74
2021/04/17 02:27:24;;;;;;;10.03;5.73;;;;;;;;;;3554374;39;20412;-76
2021/04/17 02:29:52;;;;;;;6.83;5.23;;;;;;;;;;3585312;39;20960;-75
2021/04/17 02:32:18;;;;;;;6.67;5.97;;;;;;;;;;3575267;39;20744;-76
2021/04/17 02:34:45;;;;;;;6.23;5.60;;;;;;;;;;3576659;39;20407;-76
2021/04/17 02:37:12;;;;;;;6.03;4.83;;;;;;;;;;3577718;39;20391;-76
2021/04/17 02:39:38;;;;;;;7.77;5.97;;;;;;;;;;3584492;39;20820;-76
2021/04/17 02:42:04;;;;;;;8.07;6.77;;;;;;;;;;3586600;39;20417;-76
2021/04/17 02:44:31;;;;;;;8.03;5.90;;;;;;;;;;3577768;39;20586;-76
2021/04/17 02:46:57;;;;;;;10.37;6.90;;;;;;;;;;3582578;39;20443;-76
2021/04/17 02:49:23;;;;;;;9.17;6.97;;;;;;;;;;3587121;39;20397;-76
2021/04/17 02:51:49;;;;;;;7.00;5.97;;;;;;;;;;3576943;39;20419;-76
2021/04/17 02:54:15;;;;;;;10.20;7.20;;;;;;;;;;3584283;39;20400;-76
2021/04/17 02:56:41;;;;;;;8.90;6.33;;;;;;;;;;3574693;39;20419;-76
2021/04/17 02:59:08;;;;;;;6.67;5.97;;;;;;;;;;3584670;39;20396;-76
2021/04/17 03:01:34;;;;;;;9.70;6.70;;;;;;;;;;3587975;39;20374;-76
2021/04/17 03:04:00;;;;;;;7.03;6.33;;;;;;;;;;3575806;39;20743;-76
2021/04/17 03:06:26;;;;;;;11.40;5.93;;;;;;;;;;3586670;39;20444;-76
2021/04/17 03:08:52;;;;;;;10.40;6.97;;;;;;;;;;3568536;39;20451;-76
2021/04/17 03:11:18;;;;;;;6.30;5.60;;;;;;;;;;3573692;39;21090;-76
2021/04/17 03:13:45;;;;;;;11.73;7.13;;;;;;;;;;3578308;39;20393;-76
2021/04/17 03:16:11;;;;;;;9.20;6.30;;;;;;;;;;3586915;39;20472;-76
2021/04/17 03:18:37;;;;;;;7.47;6.30;;;;;;;;;;3571664;39;20399;-76
2021/04/17 03:21:03;;;;;;;7.37;5.80;;;;;;;;;;3578291;39;20471;-77
2021/04/17 03:23:29;;;;;;;10.10;6.50;;;;;;;;;;3588535;39;20412;-76
2021/04/17 03:25:55;;;;;;;8.27;6.53;;;;;;;;;;3587430;39;20481;-76
2021/04/17 03:28:21;;;;;;;9.43;7.40;;;;;;;;;;3567850;39;20708;-76
2021/04/17 03:30:47;;;;;;;8.07;5.90;;;;;;;;;;3588015;39;20476;-76
2021/04/17 03:33:13;;;;;;;6.57;5.90;;;;;;;;;;3579017;39;20819;-76
2021/04/17 03:35:39;;;;;;;8.90;6.63;;;;;;;;;;3582874;39;20407;-76
2021/04/17 03:38:05;;;;;;;6.87;6.17;;;;;;;;;;3577374;39;20807;-76
2021/04/17 03:40:32;;;;;;;10.77;6.40;;;;;;;;;;3586957;39;20405;-76
2021/04/17 03:42:58;;;;;;;9.00;6.70;;;;;;;;;;3587317;39;20387;-76
2021/04/17 03:45:25;;;;;;;6.37;5.70;;;;;;;;;;3586957;39;20394;-76
2021/04/17 03:47:51;;;;;;;8.90;7.23;;;;;;;;;;3588060;39;20428;-76
2021/04/17 03:50:17;;;;;;;14.10;5.87;;;;;;;;;;3578594;39;20941;-76
2021/04/17 03:52:43;;;;;;;7.07;6.30;;;;;;;;;;3587998;39;20471;-76
2021/04/17 03:55:11;;;;;;;8.77;6.87;;;;;;;;;;3587453;39;20432;-76
2021/04/17 03:57:37;;;;;;;7.90;6.97;;;;;;;;;;3586112;39;20812;-76
2021/04/17 04:00:05;;;;;;;10.13;7.40;;;;;;;;;;3569436;39;20398;-76
2021/04/17 04:02:31;;;;;;;6.77;6.10;;;;;;;;;;3585822;39;20486;-77
2021/04/17 04:04:57;;;;;;;7.77;6.90;;;;;;;;;;3585565;39;20416;-76
2021/04/17 04:07:23;;;;;;;8.13;6.00;;;;;;;;;;3579109;39;20419;-76
2021/04/17 04:09:49;;;;;;;10.97;7.10;;;;;;;;;;3569574;39;20791;-76
2021/04/17 04:12:15;;;;;;;8.03;7.23;;;;;;;;;;3587699;39;21279;-76
2021/04/17 04:14:41;;;;;;;10.13;7.20;;;;;;;;;;3568232;39;20860;-76
2021/04/17 04:17:07;;;;;;;6.63;5.90;;;;;;;;;;3584954;39;20456;-76
2021/04/17 04:19:34;;;;;;;9.33;7.70;;;;;;;;;;3560299;39;20884;-76
2021/04/17 04:22:00;;;;;;;11.97;6.90;;;;;;;;;;3587289;39;20395;-76
2021/04/17 04:24:26;;;;;;;11.83;6.63;;;;;;;;;;3587266;39;20497;-76
2021/04/17 04:26:52;;;;;;;11.40;7.90;;;;;;;;;;3575295;39;20817;-76
2021/04/17 04:29:18;;;;;;;8.17;6.80;;;;;;;;;;3563233;39;20401;-76
2021/04/17 04:31:44;;;;;;;9.57;8.30;;;;;;;;;;3586964;39;20394;-76
2021/04/17 04:34:10;;;;;;;8.00;7.20;;;;;;;;;;3587085;39;20415;-76
2021/04/17 04:36:36;;;;;;;7.60;6.37;;;;;;;;;;3578586;39;20518;-76
2021/04/17 04:39:03;;;;;;;8.63;7.70;;;;;;;;;;3578156;39;20465;-76
2021/04/17 04:41:29;;;;;;;12.03;7.30;;;;;;;;;;3586314;39;20417;-76
2021/04/17 04:43:55;;;;;;;9.43;6.50;;;;;;;;;;3577158;39;20831;-76
2021/04/17 04:46:21;;;;;;;11.27;7.67;;;;;;;;;;3578966;39;20414;-76
2021/04/17 04:48:47;;;;;;;10.93;7.10;;;;;;;;;;3569631;39;20660;-76
2021/04/17 04:51:13;;;;;;;9.10;7.33;;;;;;;;;;3578957;39;20394;-76
2021/04/17 04:53:41;;;;;;;7.50;6.70;;;;;;;;;;3585249;39;20502;-76
2021/04/17 04:56:07;;;;;;;16.20;8.37;;;;;;;;;;3583593;39;20471;-76
2021/04/17 04:58:33;;;;;;;12.03;7.03;;;;;;;;;;3585538;39;20383;-76
2021/04/17 05:00:59;;;;;;;8.90;7.63;;;;;;;;;;3584970;39;20902;-76
2021/04/17 05:03:25;;;;;;;9.87;7.17;;;;;;;;;;3584452;39;20435;-77
2021/04/17 05:05:51;;;;;;;11.17;6.57;;;;;;;;;;3577428;39;20367;-76
2021/04/17 05:08:17;;;;;;;12.63;6.90;;;;;;;;;;3584114;39;20400;-75
2021/04/17 05:10:43;;;;;;;12.70;7.53;;;;;;;;;;3585814;39;20514;-76
2021/04/17 05:13:10;;;;;;;10.60;7.87;;;;;;;;;;3586797;39;20379;-76
2021/04/17 05:15:36;;;;;;;9.97;7.20;;;;;;;;;;3575886;39;20374;-75
2021/04/17 05:18:02;;;;;;;15.50;8.10;;;;;;;;;;3576481;39;20375;-76
2021/04/17 05:20:28;;;;;;;11.70;8.00;;;;;;;;;;3585995;39;20412;-75
2021/04/17 05:22:54;;;;;;;8.77;7.37;;;;;;;;;;3576998;39;20487;-76
2021/04/17 05:25:20;;;;;;;13.77;8.30;;;;;;;;;;3569686;39;20427;-76
2021/04/17 05:27:46;;;;;;;15.97;7.87;;;;;;;;;;3576233;39;20368;-76
2021/04/17 05:30:12;;;;;;;11.37;7.40;;;;;;;;;;3582285;39;20952;-76
2021/04/17 05:32:38;;;;;;;13.93;7.23;;;;;;;;;;3579758;39;20390;-78
2021/04/17 05:35:06;;;;;;;10.07;7.40;;;;;;;;;;3577581;39;20455;-76
2021/04/17 05:37:32;;;;;;;14.23;6.60;;;;;;;;;;3583728;39;20403;-76
2021/04/17 05:39:58;;;;;;;10.77;7.40;;;;;;;;;;3566692;39;20402;-76
2021/04/17 05:42:24;;;;;;;7.40;6.70;;;;;;;;;;3582427;39;20970;-76
2021/04/17 05:44:50;;;;;;;9.67;6.60;;;;;;;;;;3575487;39;20419;-76
2021/04/17 05:47:16;;;;;;;7.13;6.53;;;;;;;;;;3572621;39;20396;-76
2021/04/17 05:49:42;;;;;;;14.60;7.10;;;;;;;;;;3581507;39;20851;-76
2021/04/17 05:52:08;;;;;;;7.10;6.33;;;;;;;;;;3582298;39;20429;-75
2021/04/17 05:54:34;;;;;;;7.37;6.07;;;;;;;;;;3580515;39;20513;-76
2021/04/17 05:57:00;;;;;;;8.97;7.73;;;;;;;;;;3578765;39;20822;-76
2021/04/17 05:59:26;;;;;;;9.20;6.60;;;;;;;;;;3573959;39;20505;-76
2021/04/17 06:01:52;;;;;;;9.97;7.00;;;;;;;;;;3577428;39;20606;-76
2021/04/17 06:04:18;;;;;;;6.83;6.13;;;;;;;;;;3582882;39;20431;-76
2021/04/17 06:06:44;;;;;;;7.33;6.60;;;;;;;;;;3582286;39;20742;-76
2021/04/17 06:09:10;;;;;;;13.43;7.40;;;;;;;;;;3569611;39;20410;-75
2021/04/17 06:11:36;;;;;;;11.03;6.93;;;;;;;;;;3573192;39;20411;-75
2021/04/17 06:14:02;;;;;;;16.70;8.67;;;;;;;;;;3583790;39;20385;-75
2021/04/17 06:16:28;;;;;;;12.37;7.40;;;;;;;;;;3560167;39;20903;-75
2021/04/17 06:18:54;;;;;;;8.83;7.33;;;;;;;;;;3581756;39;20825;-75
2021/04/17 06:21:20;;;;;;;8.57;6.23;;;;;;;;;;3583813;39;20405;-75
2021/04/17 06:23:46;;;;;;;7.90;7.10;;;;;;;;;;3572675;39;20676;-76
2021/04/17 06:26:12;;;;;;;8.20;6.73;;;;;;;;;;3572805;39;20939;-74
2021/04/17 06:28:38;;;;;;;10.63;7.53;;;;;;;;;;3583122;39;20464;-75
2021/04/17 06:31:04;;;;;;;8.47;7.60;;;;;;;;;;3581830;39;21143;-76
2021/04/17 06:33:30;;;;;;;8.87;6.50;;;;;;;;;;3573870;39;20359;-75
2021/04/17 06:35:58;;;;;;;10.03;7.53;;;;;;;;;;3573551;39;20430;-75
2021/04/17 06:38:24;;;;;;;10.73;7.33;;;;;;;;;;3572824;39;20854;-74
2021/04/17 06:40:53;;;;;;;6.70;6.07;;;;;;;;;;3581925;39;20437;-76
2021/04/17 06:43:22;;;;;;;11.33;6.30;;;;;;;;;;3566127;39;20546;-75
2021/04/17 06:45:49;;;;;;;7.13;6.30;;;;;;;;;;3579669;39;20499;-75
2021/04/17 06:48:17;;;;;;;7.97;6.87;;;;;;;;;;3566609;39;20420;-75
2021/04/17 06:50:43;;;;;;;8.03;6.50;;;;;;;;;;3578180;39;20587;-74
2021/04/17 06:53:10;;;;;;;11.37;6.07;;;;;;;;;;3578396;39;20448;-75
2021/04/17 06:55:37;;;;;;;6.10;5.50;;;;;;;;;;3581925;39;20426;-76
2021/04/17 06:58:04;;;;;;;5.93;5.33;;;;;;;;;;3582266;39;20677;-75
2021/04/17 07:00:30;;;;;;;18.23;7.60;;;;;;;;;;3580119;39;20423;-75
2021/04/17 07:02:56;;;;;;;6.43;5.83;;;;;;;;;;3559938;39;20460;-75
2021/04/17 07:05:22;;;;;;;9.47;6.27;;;;;;;;;;3581109;39;20514;-75
2021/04/17 07:07:51;;;;;;;12.03;6.70;;;;;;;;;;3577473;39;20479;-75
2021/04/17 07:10:18;;;;;;;7.77;6.97;;;;;;;;;;3582887;39;21045;-75
2021/04/17 07:12:45;;;;;;;7.80;6.90;;;;;;;;;;3573673;39;20463;-75
2021/04/17 07:15:12;;;;;;;8.87;7.07;;;;;;;;;;3571837;39;20431;-77
2021/04/17 07:17:38;;;;;;;7.40;6.70;;;;;;;;;;3583777;39;20405;-75
2021/04/17 07:20:15;;;;;;;10.93;7.00;;;;;;;;;;3581973;39;20415;-75
2021/04/17 07:22:42;;;;;;;13.53;8.40;;;;;;;;;;3571604;39;20985;-75
2021/04/17 07:25:08;;;;;;;8.97;7.93;;;;;;;;;;3578605;39;20417;-75
2021/04/17 07:27:37;;;;;;;8.67;6.80;;;;;;;;;;3583600;39;20881;-75
2021/04/17 07:30:30;;;;;;;8.70;6.77;;;;;;;;;;3586828;39;20408;-74
2021/04/17 07:33:14;;;;;;;6.83;5.97;;;;;;;;;;3574581;39;20416;-74
2021/04/17 07:35:45;;;;;;;7.43;6.70;;;;;;;;;;3582727;39;20427;-75
2021/04/17 07:38:14;;;;;;;9.03;8.30;;;;;;;;;;3583056;39;21056;-74
2021/04/17 07:40:41;;;;;;;8.27;7.47;;;;;;;;;;3585885;39;20493;-74
2021/04/17 07:43:07;;;;;;;10.50;7.50;;;;;;;;;;3582538;39;20417;-75
2021/04/17 07:45:35;;;;;;;10.10;7.37;;;;;;;;;;3584815;39;20843;-75
2021/04/17 07:48:08;;;;;;;8.27;7.27;;;;;;;;;;3584505;39;20414;-75
2021/04/17 07:50:34;;;;;;;9.20;7.20;;;;;;;;;;3574510;39;20465;-75
2021/04/17 07:53:01;;;;;;;7.70;6.87;;;;;;;;;;3573915;39;20505;-75
2021/04/17 07:55:32;;;;;;;6.83;6.30;;;;;;;;;;3582255;39;20804;-75
2021/04/17 07:58:00;;;;;;;8.27;7.30;;;;;;;;;;3582654;39;20410;-75
2021/04/17 08:00:27;;;;;;;9.47;6.80;;;;;;;;;;3574688;39;20409;-74
2021/04/17 08:02:54;;;;;;;9.17;7.33;;;;;;;;;;3583490;39;20420;-76
2021/04/17 08:05:21;;;;;;;8.13;7.30;;;;;;;;;;3574959;39;20401;-74
2021/04/17 08:07:48;;;;;;;8.67;7.57;;;;;;;;;;3576979;39;20399;-76
2021/04/17 08:10:15;;;;;;;8.40;7.60;;;;;;;;;;3583780;39;20411;-76
2021/04/17 08:12:42;;;;;;;10.10;7.90;;;;;;;;;;3571727;39;20399;-76
2021/04/17 08:15:10;;;;;;;7.23;6.43;;;;;;;;;;3573301;39;20413;-75
2021/04/17 08:17:43;;;;;;;7.30;6.60;;;;;;;;;;3585098;39;20425;-76
2021/04/17 08:20:14;;;;;;;10.43;7.20;;;;;;;;;;3568224;39;20416;-75
2021/04/17 08:22:42;;;;;;;7.53;6.93;;;;;;;;;;3584256;39;20409;-75
2021/04/17 08:25:08;;;;;;;7.60;6.83;;;;;;;;;;3575703;39;20523;-76
2021/04/17 08:27:34;;;;;;;7.63;6.93;;;;;;;;;;3581546;39;21028;-76
2021/04/17 08:30:09;;;;;;;6.83;6.23;;;;;;;;;;3577185;39;20444;-75
2021/04/17 08:32:39;;;;;;;7.13;6.17;;;;;;;;;;3574134;39;20442;-75
2021/04/17 08:35:10;;;;;;;7.67;6.97;;;;;;;;;;3568784;39;20400;-76
2021/04/17 08:37:56;;;;;;;11.07;6.83;;;;;;;;;;3568898;39;20424;-76
2021/04/17 08:40:37;;;;;;;7.97;6.70;;;;;;;;;;3575587;39;20962;-76
2021/04/17 08:43:04;;;;;;;7.77;6.90;;;;;;;;;;3579102;39;20901;-75
2021/04/17 08:45:30;;;;;;;12.70;7.67;;;;;;;;;;3576110;39;20419;-75
2021/04/17 08:47:58;;;;;;;10.47;6.67;;;;;;;;;;3577131;39;20395;-75
2021/04/17 08:50:25;;;;;;;7.33;6.23;;;;;;;;;;3582141;39;20805;-76
2021/04/17 08:53:02;;;;;;;5.50;5.00;;;;;;;;;;3571086;39;20443;-75
2021/04/17 08:55:49;;;;;;;6.27;5.77;;;;;;;;;;3583227;39;20757;-75
2021/04/17 08:58:22;;;;;;;6.27;5.67;;;;;;;;;;3566742;39;20766;-75
2021/04/17 09:00:51;;;;;;;9.60;5.87;;;;;;;;;;3580894;39;20498;-75
2021/04/17 09:03:35;;;;;;;8.67;6.00;;;;;;;;;;3572481;39;20691;-75
2021/04/17 09:06:01;;;;;;;8.23;5.13;;;;;;;;;;3581199;39;20420;-77
2021/04/17 09:08:28;;;;;;;6.53;5.73;;;;;;;;;;3572445;39;20419;-76
2021/04/17 09:10:54;;;;;;;8.10;6.27;;;;;;;;;;3586155;39;20803;-74
2021/04/17 09:13:26;;;;;;;5.87;5.27;;;;;;;;;;3583798;39;20388;-74
2021/04/17 09:15:53;;;;;;;7.30;4.70;;;;;;;;;;3569336;39;20527;-75
2021/04/17 09:21:01;;;;;;;5.57;4.57;;;;;;;;;;3579162;39;20432;-75
2021/04/17 09:23:40;;;;;;;7.80;6.13;;;;;;;;;;3580702;39;20389;-75
2021/04/17 09:26:09;;;;;;;7.80;5.20;;;;;;;;;;3568663;39;20433;-75
2021/04/17 09:28:38;;;;;;;6.83;5.20;;;;;;;;;;3577615;39;20432;-75
2021/04/17 09:31:05;;;;;;;11.03;4.63;;;;;;;;;;3579410;39;20413;-75
2021/04/17 09:33:33;;;;;;;8.60;5.00;;;;;;;;;;3570041;39;20423;-74
2021/04/17 09:35:59;;;;;;;6.80;4.70;;;;;;;;;;3563431;39;20843;-75
2021/04/17 09:38:32;;;;;;;7.13;5.57;;;;;;;;;;3569313;39;20416;-75
2021/04/17 09:40:59;;;;;;;5.87;4.10;;;;;;;;;;3570055;39;20800;-75
2021/04/17 09:43:25;;;;;;;5.40;4.90;;;;;;;;;;3578805;39;20408;-76
2021/04/17 09:45:51;;;;;;;5.50;5.00;;;;;;;;;;3577684;39;20726;-75
2021/04/17 09:48:20;;;;;;;5.73;5.13;;;;;;;;;;3570955;39;20408;-76
2021/04/17 09:50:46;;;;;;;6.80;5.37;;;;;;;;;;3581267;39;20424;-75
2021/04/17 09:53:28;;;;;;;9.23;6.37;;;;;;;;;;3574682;39;20408;-75
2021/04/17 09:55:55;;;;;;;5.63;4.73;;;;;;;;;;3583505;39;20494;-75
2021/04/17 09:58:26;;;;;;;5.60;5.10;;;;;;;;;;3567871;39;20398;-75
2021/04/17 10:00:53;;;;;;;3.60;3.30;;;;;;;;;;3581380;39;20400;-76
2021/04/17 10:03:29;;;;;;;6.67;5.80;;;;;;;;;;3570975;39;20982;-76
2021/04/17 10:05:55;;;;;;;5.13;3.87;;;;;;;;;;3564508;39;20427;-76
2021/04/17 10:08:29;;;;;;;6.23;5.63;;;;;;;;;;3583558;39;20415;-76
2021/04/17 10:10:55;;;;;;;6.07;4.50;;;;;;;;;;3572946;39;20444;-76
2021/04/17 10:13:41;;;;;;;5.37;4.87;;;;;;;;;;3583389;39;20388;-76
2021/04/17 10:16:07;;;;;;;7.03;6.33;;;;;;;;;;3573847;39;20404;-76
2021/04/17 10:18:34;;;;;;;5.73;5.33;;;;;;;;;;3584880;39;21037;-76
2021/04/17 10:21:00;;;;;;;5.37;4.57;;;;;;;;;;3582399;39;20405;-75
2021/04/17 10:23:26;;;;;;;8.47;5.00;;;;;;;;;;3575889;39;20395;-75
2021/04/17 10:25:53;;;;;;;6.53;6.00;;;;;;;;;;3583508;39;20459;-75
2021/04/17 10:28:20;;;;;;;7.40;5.33;;;;;;;;;;3583419;39;20433;-75
2021/04/17 10:30:47;;;;;;;7.90;5.20;;;;;;;;;;3582956;39;20950;-75
2021/04/17 10:33:14;;;;;;;12.37;6.00;;;;;;;;;;3571341;39;20817;-75
2021/04/17 10:35:40;;;;;;;6.10;5.60;;;;;;;;;;3569568;39;20448;-75
2021/04/17 10:38:06;;;;;;;5.83;5.23;;;;;;;;;;3552838;39;20430;-75
2021/04/17 10:40:32;;;;;;;8.67;5.67;;;;;;;;;;3573920;39;20444;-75
2021/04/17 10:43:01;;;;;;;5.43;4.93;;;;;;;;;;3563930;39;21026;-75
2021/04/17 10:45:31;;;;;;;5.60;4.90;;;;;;;;;;3580202;39;20407;-75
2021/04/17 10:48:16;;;;;;;6.07;5.47;;;;;;;;;;3574822;39;20447;-75
2021/04/17 10:51:03;;;;;;;5.57;4.80;;;;;;;;;;3583056;39;20431;-75
2021/04/17 10:53:49;;;;;;;6.60;5.60;;;;;;;;;;3567977;39;20858;-74
2021/04/17 10:56:16;;;;;;;8.60;6.37;;;;;;;;;;3584076;39;20416;-75
2021/04/17 10:58:43;;;;;;;7.60;5.60;;;;;;;;;;3586446;39;20414;-75
2021/04/17 11:01:14;;;;;;;7.30;5.07;;;;;;;;;;3573352;39;20776;-75
2021/04/17 11:03:40;;;;;;;6.70;5.60;;;;;;;;;;3576045;39;20514;-75
2021/04/17 11:06:13;;;;;;;7.10;5.30;;;;;;;;;;3583379;39;20506;-75
2021/04/17 11:08:39;;;;;;;7.37;5.40;;;;;;;;;;3585058;39;20407;-75
2021/04/17 11:11:13;;;;;;;4.93;4.43;;;;;;;;;;3574120;39;20729;-75
2021/04/17 11:13:43;;;;;;;8.07;6.53;;;;;;;;;;3565244;39;20631;-75
2021/04/17 11:16:12;;;;;;;8.63;5.37;;;;;;;;;;3582300;39;20415;-75
2021/04/17 11:18:39;;;;;;;8.00;5.17;;;;;;;;;;3582779;39;20455;-75
2021/04/17 11:21:11;;;;;;;5.87;4.40;;;;;;;;;;3568217;39;20825;-75
2021/04/17 11:23:37;;;;;;;7.30;4.37;;;;;;;;;;3584785;39;20408;-75
2021/04/17 11:26:07;;;;;;;6.10;4.43;;;;;;;;;;3585844;39;20413;-75
2021/04/17 11:28:34;;;;;;;7.73;4.27;;;;;;;;;;3572543;39;20783;-75
2021/04/17 11:31:00;;;;;;;8.03;3.90;;;13.20;1.00;;;;;;3581636;39;20420;-75
2021/04/17 11:33:26;;;;;;;3.30;3.00;;;;;;;;;;3574190;39;20392;-75
2021/04/17 11:35:53;;;;;;;3.90;3.50;;;;;;;;;;3584465;39;20520;-75
2021/04/17 11:38:19;;;;;;;5.20;3.87;;;;;;;;;;3576233;39;20487;-75
2021/04/17 11:40:45;;;;;;;5.00;4.00;;;;;;;;;;3581259;39;20533;-74
2021/04/17 11:43:11;;;;;;;4.03;3.60;;;;;;;;;;3573919;39;20474;-75
2021/04/17 11:45:37;;;;;;;4.67;4.27;;;;;;;;;;3572001;39;20707;-77
2021/04/17 11:48:05;;;;;;;6.93;4.20;;;;;;;;;;3584300;39;20435;-75
2021/04/17 11:50:31;;;;;;;10.50;3.90;;;;;;;;;;3585545;39;20420;-75
2021/04/17 11:52:57;;;;;;;6.30;4.80;;;14.00;51.10;;;;;;3576452;39;20408;-75
2021/04/17 11:55:23;;;;;;;4.47;4.17;;;;;;;;;;3569260;39;20429;-74
2021/04/17 11:57:50;;;;;;;5.77;3.20;;;;;;;;;;3584621;39;20424;-74
2021/04/17 12:00:16;;;;;;;6.80;4.40;;;;;;;;;;3575087;39;20455;-74
2021/04/17 12:02:42;;;;;;;8.40;5.00;;;;;;;;;;3582497;39;21167;-75
2021/04/17 12:05:09;;;;;;;3.97;3.73;;;14.30;49.40;;;;;;3566487;39;20552;-75
2021/04/17 12:07:34;;;;;;;3.77;3.47;;;13.40;47.80;;;;;;3574502;39;20444;-75
2021/04/17 12:10:00;;;;;;;3.83;3.40;;;;;;;;;;3584390;39;21040;-75
2021/04/17 12:12:28;;;;;;;5.50;3.40;;;;;;;;;;3582801;39;20232;-75
2021/04/17 12:14:54;;;;;;;5.40;4.90;;;;;;;;;;3585279;39;20401;-75
2021/04/17 12:17:20;;;;;;;9.53;5.70;;;;;;;;;;3575471;39;21526;-75
2021/04/17 12:19:46;;;;;;;7.60;5.73;;;;;;;;;;3573955;39;20446;-75
2021/04/17 12:22:12;;;;;;;4.50;4.10;;;;;;;;;;3575407;39;20425;-75
2021/04/17 12:24:38;;;;;;;5.10;4.60;;;;;;;;;;3574505;39;20580;-76
2021/04/17 12:27:07;;;;;;;6.83;3.67;;;;;;;;;;3585123;39;20510;-76
2021/04/17 12:29:33;;;;;;;4.50;3.63;;;;;;;;;;3585125;39;20412;-76
2021/04/17 12:32:21;;;;;;;8.33;3.60;;;;;;;;;;3575999;39;20934;-75
2021/04/17 12:34:47;;;;;;;5.23;3.37;;;;;;;;;;3582727;39;20453;-75
2021/04/17 12:37:13;;;;;;;6.27;4.53;;;14.40;50.70;;;;;;3584259;39;20417;-75
2021/04/17 12:39:39;;;;;;;4.37;3.77;;;;;;;;;;3582065;39;20423;-75
2021/04/17 12:42:05;;;;;;;5.07;3.80;;;;;;;;;;3584323;39;20585;-75
2021/04/17 12:44:31;;;;;;;4.60;3.80;;;;;;;;;;3575359;39;20411;-75
2021/04/17 12:46:59;;;;;;;6.00;4.03;;;;;;;;;;3583209;39;20703;-76
2021/04/17 12:49:27;;;;;;;4.33;3.80;;;;;;;;;;3558930;39;20465;-75
2021/04/17 12:51:53;;;;;;;6.83;3.30;;;;;;;;;;3583653;39;20793;-75
2021/04/17 12:54:19;;;;;;;3.80;3.30;;;;;;;;;;3567710;39;20419;-75
2021/04/17 12:56:45;;;;;;;5.40;3.80;;;;;;;;;;3564595;39;20664;-75
2021/04/17 12:59:11;;;;;;;11.40;3.83;;;;;;;;;;3573992;39;20435;-75
2021/04/17 13:01:37;;;;;;;4.80;3.93;;;;;;;;;;3584604;39;20487;-75
2021/04/17 13:04:03;;;;;;;8.80;4.30;;;;;;;;;;3575664;39;20515;-75
2021/04/17 13:06:30;;;;;;;6.40;4.20;;;;;;;;;;3575134;39;20448;-75
2021/04/17 13:08:56;;;;;;;4.70;4.30;;;;;;;;;;3582690;39;20442;-75
2021/04/17 13:11:22;;;;;;;7.03;4.73;;;;;;;;;;3572973;39;20392;-75
2021/04/17 13:13:52;;;;;;;5.07;4.57;;;;;;;;;;3575765;39;20400;-75
2021/04/17 13:16:18;;;;;;;5.80;4.10;;;;;;;;;;3585063;39;20718;-76
2021/04/17 13:18:44;;;;;;;4.50;3.87;;;;;;;;;;3575581;39;20723;-76
2021/04/17 13:21:10;;;;;;;4.80;4.27;;;;;;;;;;3576135;39;20894;-75
2021/04/17 13:23:38;;;;;;;6.47;4.10;;;;;;;;;;3581085;39;20470;-74
2021/04/17 13:26:04;;;;;;;4.73;4.20;;;;;;;;;;3579187;39;20502;-74
2021/04/17 13:28:30;;;;;;;5.37;3.97;;;;;;;;;;3573258;39;20423;-76
2021/04/17 13:30:56;;;;;;;7.00;4.07;;;;;;;;;;3586072;39;20411;-74
2021/04/17 13:33:23;;;;;;;4.20;3.83;;;;;;;;;;3568175;39;20446;-75
2021/04/17 13:35:49;;;;;;;4.00;3.70;;;;;;;;;;3581626;39;20472;-74
2021/04/17 13:38:15;;;;;;;7.87;3.43;;;;;;;;;;3580487;39;20439;-75
2021/04/17 13:40:42;;;;;;;6.30;3.83;;;;;;;;;;3571074;39;20436;-75
2021/04/17 13:43:09;;;;;;;6.10;3.97;;;;;;;;;;3583232;39;20412;-75
2021/04/17 13:45:35;;;;;;;5.20;4.10;;;;;;;;;;3572913;39;20847;-75
2021/04/17 13:48:02;;;;;;;5.17;4.77;;;;;;;;;;3567593;39;20426;-75
2021/04/17 13:50:28;;;;;;;4.43;4.03;;;;;;;;;;3576415;39;20511;-76
2021/04/17 13:52:54;;;;;;;5.17;4.67;;;;;;;;;;3580895;39;20408;-76
2021/04/17 13:55:20;;;;;;;4.77;4.30;;;;;;;;;;3556407;39;20416;-75
2021/04/17 13:57:46;;;;;;;4.47;4.07;;;;;;;;;;3585493;39;20739;-75
2021/04/17 14:00:12;;;;;;;4.13;3.80;;;;;;;;;;3585616;39;20409;-75
2021/04/17 14:02:38;;;;;;;4.93;4.47;;;;;;;;;;3576145;39;20425;-75
2021/04/17 14:05:05;;;;;;;4.50;4.10;;;;;;;;;;3584132;39;20707;-76
2021/04/17 14:07:32;;;;;;;8.67;4.93;;;;;;;;;;3581656;39;21186;-76
2021/04/17 14:10:00;;;;;;;5.53;5.03;;;;;;;;;;3566145;39;20416;-76
2021/04/17 14:12:26;;;;;;;5.57;4.40;;;;;;;;;;3574501;39;20489;-76
2021/04/17 14:14:52;;;;;;;5.10;4.60;;;;;;;;;;3572498;39;20406;-74
2021/04/17 14:17:18;;;;;;;5.10;4.60;;;;;;;;;;3583740;39;20428;-74
2021/04/17 14:19:44;;;;;;;5.43;4.93;;;;;;;;;;3586620;39;20404;-74
2021/04/17 14:22:10;;;;;;;6.33;4.03;;;;;;;;;;3576053;39;20432;-75
2021/04/17 14:24:37;;;;;;;6.77;4.43;;;;;;;;;;3583643;39;20443;-75
2021/04/17 14:27:03;;;;;;;6.90;3.87;;;;;;;;;;3570345;39;20408;-75
2021/04/17 14:29:29;;;;;;;4.13;3.73;;;;;;;;;;3585041;39;20413;-75
2021/04/17 14:31:56;;;;;;;6.40;4.20;;;;;;;;;;3576251;39;20765;-75
2021/04/17 14:34:22;;;;;;;6.43;3.90;;;;;;;;;;3583656;39;20391;-75
2021/04/17 14:36:48;;;;;;;6.70;4.17;;;;;;;;;;3584217;39;20760;-75
2021/04/17 14:39:14;;;;;;;4.97;4.43;;;;;;;;;;3584557;39;20390;-75
2021/04/17 14:41:40;;;;;;;4.60;3.80;;;;;;;;;;3582403;39;20413;-74
2021/04/17 14:44:11;;;;;;;5.23;4.10;;;;;;;;;;3573189;39;20444;-75